createdAt,value
2023-04-11T00:01:34.383Z,2.60
2023-04-11T00:03:38.961Z,2.10
2023-04-11T00:05:41.904Z,1.47
2023-04-11T00:07:44.639Z,2.37
2023-04-11T00:09:47.357Z,1.60
2023-04-11T00:11:50.082Z,2.60
2023-04-11T00:13:57.521Z,2.27
2023-04-11T00:16:02.685Z,3.07
2023-04-11T00:18:06.482Z,4.73
2023-04-11T00:20:11.493Z,2.95
2023-04-11T00:22:15.640Z,1.60
2023-04-11T00:24:18.488Z,1.80
2023-04-11T00:26:22.331Z,2.00
2023-04-11T00:28:25.435Z,2.90
2023-04-11T00:30:29.570Z,1.93
2023-04-11T00:32:32.327Z,2.53
2023-04-11T00:34:35.158Z,4.57
2023-04-11T00:36:37.937Z,2.07
2023-04-11T00:38:42.234Z,4.03
2023-04-11T00:40:45.480Z,2.83
2023-04-11T00:42:48.932Z,3.63
2023-04-11T00:44:53.147Z,1.63
2023-04-11T00:46:57.567Z,3.43
2023-04-11T00:49:00.883Z,1.57
2023-04-11T00:51:03.894Z,4.20
2023-04-11T00:53:06.806Z,2.03
2023-04-11T00:55:11.607Z,2.80
2023-04-11T00:57:14.507Z,3.33
2023-04-11T00:59:18.439Z,4.20
2023-04-11T01:01:25.089Z,1.67
2023-04-11T01:03:30.205Z,2.27
2023-04-11T01:05:35.743Z,2.40
2023-04-11T01:07:41.165Z,1.87
2023-04-11T01:09:45.204Z,1.53
2023-04-11T01:11:49.259Z,1.37
2023-04-11T01:13:52.744Z,2.00
2023-04-11T01:15:55.521Z,1.60
2023-04-11T01:18:02.261Z,1.87
2023-04-11T01:20:09.286Z,1.77
2023-04-11T01:22:14.789Z,3.10
2023-04-11T01:24:19.498Z,2.23
2023-04-11T01:26:23.037Z,2.80
2023-04-11T01:28:25.800Z,3.60
2023-04-11T01:30:28.688Z,6.53
2023-04-11T01:32:31.491Z,2.00
2023-04-11T01:34:36.313Z,2.97
2023-04-11T01:36:39.502Z,1.67
2023-04-11T01:38:42.454Z,1.98
2023-04-11T01:40:47.723Z,4.43
2023-04-11T01:42:51.794Z,3.33
2023-04-11T01:44:57.551Z,5.13
2023-04-11T01:47:00.858Z,3.58
2023-04-11T01:49:04.399Z,3.88
2023-04-11T01:51:08.425Z,3.95
2023-04-11T01:53:11.223Z,2.10
2023-04-11T01:55:14.014Z,1.70
2023-04-11T01:57:19.205Z,2.60
2023-04-11T01:59:22.848Z,4.32
2023-04-11T02:01:26.073Z,4.50
2023-04-11T02:03:29.109Z,2.90
2023-04-11T02:05:32.017Z,3.47
2023-04-11T02:07:34.823Z,3.47
2023-04-11T02:09:37.885Z,2.85
2023-04-11T02:11:40.952Z,2.22
2023-04-11T02:13:45.944Z,2.65
2023-04-11T02:15:48.892Z,3.55
2023-04-11T02:17:54.263Z,2.05
2023-04-11T02:19:57.482Z,2.90
2023-04-11T02:22:00.373Z,3.35
2023-04-11T02:24:03.134Z,2.40
2023-04-11T02:26:06.159Z,2.35
2023-04-11T02:28:08.910Z,2.45
2023-04-11T02:30:13.437Z,2.42
2023-04-11T02:32:16.433Z,2.10
2023-04-11T02:34:22.090Z,2.13
2023-04-11T02:36:24.880Z,5.57
2023-04-11T02:38:27.726Z,2.13
2023-04-11T02:40:30.594Z,2.15
2023-04-11T02:42:33.377Z,1.92
2023-04-11T02:44:36.225Z,1.20
2023-04-11T02:46:41.068Z,1.83
2023-04-11T02:48:44.739Z,1.80
2023-04-11T02:50:49.032Z,1.95
2023-04-11T02:52:52.672Z,1.00
2023-04-11T02:54:59.085Z,0.68
2023-04-11T02:57:03.669Z,0.98
2023-04-11T02:59:07.150Z,1.92
2023-04-11T03:01:11.806Z,0.88
2023-04-11T03:03:16.133Z,0.50
2023-04-11T03:05:21.454Z,0.80
2023-04-11T03:07:27.133Z,0.80
2023-04-11T03:09:30.151Z,0.73
2023-04-11T03:11:32.934Z,7.00
2023-04-11T03:13:37.387Z,0.63
2023-04-11T03:15:40.236Z,0.85
2023-04-11T03:17:45.172Z,1.55
2023-04-11T03:19:51.861Z,0.82
2023-04-11T03:21:54.827Z,0.45
2023-04-11T03:23:57.529Z,0.45
2023-04-11T03:26:00.574Z,1.10
2023-04-11T03:28:04.272Z,0.90
2023-04-11T03:30:09.014Z,0.20
2023-04-11T03:32:18.136Z,0.73
2023-04-11T03:34:21.899Z,1.13
2023-04-11T03:36:27.686Z,1.48
2023-04-11T03:38:30.727Z,1.15
2023-04-11T03:40:33.544Z,0.20
2023-04-11T03:42:44.901Z,0.57
2023-04-11T03:44:51.927Z,0.30
2023-04-11T03:46:55.147Z,1.25
2023-04-11T03:48:58.989Z,0.68
2023-04-11T03:51:02.189Z,0.40
2023-04-11T03:53:14.770Z,1.63
2023-04-11T03:55:20.430Z,1.20
2023-04-11T03:57:26.756Z,1.05
2023-04-11T03:59:30.779Z,1.25
2023-04-11T04:01:38.530Z,0.20
2023-04-11T04:03:42.465Z,0.10
2023-04-11T04:05:49.230Z,0.95
2023-04-11T04:07:54.589Z,1.40
2023-04-11T04:10:22.720Z,0.30
2023-04-11T04:12:28.046Z,0.30
2023-04-11T04:14:43.818Z,0.50
2023-04-11T04:16:46.989Z,1.02
2023-04-11T04:18:51.460Z,0.40
2023-04-11T04:20:56.380Z,0.55
2023-04-11T04:23:01.138Z,5.78
2023-04-11T04:25:25.657Z,15.68
2023-04-11T04:27:34.038Z,25.63
2023-04-11T04:29:38.984Z,5.22
2023-04-11T04:31:52.889Z,1.73
2023-04-11T04:34:03.690Z,0.75
2023-04-11T04:36:10.105Z,0.75
2023-04-11T04:38:17.920Z,0.82
2023-04-11T04:40:27.405Z,1.52
2023-04-11T04:42:36.444Z,0.40
2023-04-11T04:44:41.152Z,0.40
2023-04-11T04:46:54.248Z,0.30
2023-04-11T04:49:01.592Z,1.70
2023-04-11T04:51:05.840Z,0.30
2023-04-11T04:53:10.449Z,0.40
2023-04-11T04:55:19.814Z,0.52
2023-04-11T04:57:25.836Z,0.55
2023-04-11T04:59:28.572Z,2.45
2023-04-11T05:01:39.931Z,0.68
2023-04-11T05:03:46.792Z,0.57
2023-04-11T05:05:59.516Z,0.85
2023-04-11T05:08:02.678Z,0.50
2023-04-11T05:10:08.225Z,0.70
2023-04-11T05:12:13.600Z,0.73
2023-04-11T05:14:18.238Z,0.47
2023-04-11T05:16:21.877Z,0.60
2023-04-11T05:18:24.655Z,0.50
2023-04-11T05:20:29.713Z,1.13
2023-04-11T05:22:33.649Z,0.50
2023-04-11T05:24:37.108Z,0.75
2023-04-11T05:26:43.067Z,0.30
2023-04-11T05:28:46.956Z,0.40
2023-04-11T05:30:55.459Z,0.80
2023-04-11T05:32:58.356Z,0.57
2023-04-11T05:35:01.184Z,1.27
2023-04-11T05:37:15.019Z,2.78
2023-04-11T05:39:17.697Z,1.45
2023-04-11T05:41:20.335Z,0.80
2023-04-11T05:43:22.949Z,1.13
2023-04-11T05:45:25.694Z,1.13
2023-04-11T05:47:29.759Z,0.95
2023-04-11T05:49:32.568Z,1.77
2023-04-11T05:51:35.393Z,0.70
2023-04-11T05:53:38.034Z,2.17
2023-04-11T05:55:40.813Z,0.93
2023-04-11T05:57:43.495Z,2.15
2023-04-11T05:59:49.689Z,4.40
2023-04-11T06:01:52.469Z,1.60
2023-04-11T06:03:57.475Z,1.17
2023-04-11T06:06:01.298Z,1.92
2023-04-11T06:08:05.505Z,0.82
2023-04-11T06:10:09.922Z,1.63
2023-04-11T06:12:12.585Z,1.80
2023-04-11T06:14:15.249Z,1.05
2023-04-11T06:16:18.043Z,2.90
2023-04-11T06:18:20.785Z,2.40
2023-04-11T06:20:25.696Z,2.28
2023-04-11T06:22:28.472Z,3.17
2023-04-11T06:24:38.901Z,1.55
2023-04-11T06:26:41.560Z,1.35
2023-04-11T06:28:44.212Z,3.33
2023-04-11T06:30:46.921Z,1.58
2023-04-11T06:32:49.759Z,1.95
2023-04-11T06:34:52.655Z,0.88
2023-04-11T06:36:56.947Z,0.85
2023-04-11T06:38:59.653Z,1.48
2023-04-11T06:41:02.415Z,1.20
2023-04-11T06:43:05.149Z,2.63
2023-04-11T06:45:08.846Z,1.83
2023-04-11T06:47:11.651Z,0.98
2023-04-11T06:49:14.387Z,1.88
2023-04-11T06:51:17.108Z,1.40
2023-04-11T06:53:21.515Z,2.60
2023-04-11T06:55:24.303Z,1.42
2023-04-11T06:57:27.040Z,2.13
2023-04-11T06:59:29.919Z,0.93
2023-04-11T07:01:35.605Z,1.70
2023-04-11T07:03:38.570Z,2.22
2023-04-11T07:05:41.500Z,3.58
2023-04-11T07:07:44.310Z,2.08
2023-04-11T07:09:48.387Z,4.97
2023-04-11T07:11:51.153Z,4.85
2023-04-11T07:13:54.290Z,4.38
2023-04-11T07:15:57.346Z,5.18
2023-04-11T07:18:00.212Z,4.25
2023-04-11T07:20:04.703Z,4.85
2023-04-11T07:22:07.718Z,6.50
2023-04-11T07:24:13.170Z,4.13
2023-04-11T07:26:17.887Z,5.55
2023-04-11T07:28:21.414Z,5.07
2023-04-11T07:30:24.336Z,5.40
2023-04-11T07:32:27.099Z,5.05
2023-04-11T07:34:29.852Z,4.45
2023-04-11T07:36:32.606Z,7.72
2023-04-11T07:38:37.437Z,6.85
2023-04-11T07:40:40.267Z,11.80
2023-04-11T07:42:46.139Z,7.93
2023-04-11T07:44:48.898Z,4.95
2023-04-11T07:46:51.713Z,9.45
2023-04-11T07:48:54.409Z,7.53
2023-04-11T07:50:57.124Z,13.27
2023-04-11T07:52:59.858Z,8.07
2023-04-11T07:55:02.944Z,4.78
2023-04-11T07:57:05.710Z,3.63
2023-04-11T07:59:09.810Z,4.38
2023-04-11T08:01:21.109Z,6.00
2023-04-11T08:03:24.241Z,11.95
2023-04-11T08:05:27.825Z,7.68
2023-04-11T08:07:30.579Z,7.45
2023-04-11T08:09:33.483Z,7.53
2023-04-11T08:11:36.457Z,8.60
2023-04-11T08:13:39.553Z,5.95
2023-04-11T08:15:43.697Z,4.55
2023-04-11T08:17:46.642Z,5.40
2023-04-11T08:19:49.390Z,3.65
2023-04-11T08:21:52.750Z,4.05
2023-04-11T08:23:55.891Z,2.63
2023-04-11T08:25:58.916Z,4.47
2023-04-11T08:28:02.462Z,7.10
2023-04-11T08:30:06.759Z,5.13
2023-04-11T08:32:10.879Z,4.05
2023-04-11T08:34:14.047Z,3.58
2023-04-11T08:36:16.931Z,5.05
2023-04-11T08:38:19.741Z,5.93
2023-04-11T08:40:22.486Z,5.93
2023-04-11T08:42:27.276Z,3.90
2023-04-11T08:44:30.032Z,4.97
2023-04-11T08:46:34.410Z,4.15
2023-04-11T08:48:39.647Z,4.93
2023-04-11T08:50:42.805Z,6.75
2023-04-11T08:52:47.718Z,4.72
2023-04-11T08:54:54.719Z,6.78
2023-04-11T08:56:57.424Z,3.72
2023-04-11T08:59:00.160Z,3.45
2023-04-11T09:01:26.043Z,4.32
2023-04-11T09:03:28.791Z,3.50
2023-04-11T09:05:35.018Z,5.00
2023-04-11T09:07:49.912Z,4.47
2023-04-11T09:09:52.679Z,4.10
2023-04-11T09:11:56.341Z,8.75
2023-04-11T09:14:09.445Z,4.15
2023-04-11T09:16:14.115Z,5.95
2023-04-11T09:18:33.674Z,4.88
2023-04-11T09:20:37.807Z,3.30
2023-04-11T09:22:43.030Z,4.18
2023-04-11T09:24:48.072Z,4.55
2023-04-11T09:26:51.974Z,3.38
2023-04-11T09:28:54.878Z,2.70
2023-04-11T09:30:57.869Z,6.50
2023-04-11T09:33:18.186Z,5.55
2023-04-11T09:35:24.824Z,3.97
2023-04-11T09:37:42.278Z,4.15
2023-04-11T09:39:45.477Z,2.58
2023-04-11T09:41:48.633Z,5.47
2023-04-11T09:43:52.203Z,3.78
2023-04-11T09:46:10.807Z,2.97
2023-04-11T09:48:15.959Z,2.80
2023-04-11T09:50:19.426Z,4.20
2023-04-11T09:52:22.163Z,4.47
2023-04-11T09:54:28.134Z,5.63
2023-04-11T09:56:33.932Z,3.83
2023-04-11T09:58:38.271Z,5.30
2023-04-11T10:00:42.351Z,3.78
2023-04-11T10:02:46.561Z,2.28
2023-04-11T10:04:50.121Z,2.58
2023-04-11T10:07:04.360Z,5.65
2023-04-11T10:09:09.596Z,3.20
2023-04-11T10:11:18.443Z,2.38
2023-04-11T10:13:41.275Z,2.85
2023-04-11T10:16:08.470Z,4.10
2023-04-11T10:18:12.734Z,3.90
2023-04-11T10:20:46.238Z,3.42
2023-04-11T10:23:01.910Z,2.60
2023-04-11T10:25:17.414Z,4.95
2023-04-11T10:27:47.076Z,4.57
2023-04-11T10:29:52.514Z,1.95
2023-04-11T10:32:09.746Z,3.70
2023-04-11T10:34:13.807Z,2.85
2023-04-11T10:36:16.606Z,2.67
2023-04-11T10:38:48.217Z,2.92
2023-04-11T10:41:18.982Z,3.35
2023-04-11T10:43:23.186Z,2.60
2023-04-11T10:45:27.095Z,3.72
2023-04-11T10:47:29.902Z,3.15
2023-04-11T10:49:38.027Z,4.05
2023-04-11T10:51:40.875Z,3.20
2023-04-11T10:53:44.113Z,3.78
2023-04-11T10:55:48.789Z,2.67
2023-04-11T10:58:08.456Z,4.15
2023-04-11T11:00:16.427Z,3.13
2023-04-11T11:02:21.679Z,8.40
2023-04-11T11:04:32.079Z,3.33
2023-04-11T11:06:46.083Z,4.18
2023-04-11T11:08:49.920Z,3.63
2023-04-11T11:10:52.633Z,1.88
2023-04-11T11:12:56.019Z,4.50
2023-04-11T11:14:58.817Z,3.72
2023-04-11T11:17:03.578Z,4.20
2023-04-11T11:19:06.584Z,3.90
2023-04-11T11:21:14.160Z,4.47
2023-04-11T11:23:19.885Z,2.88
2023-04-11T11:25:22.666Z,5.63
2023-04-11T11:27:26.080Z,4.07
2023-04-11T11:29:33.735Z,2.90
2023-04-11T11:31:39.232Z,3.60
2023-04-11T11:33:43.490Z,3.08
2023-04-11T11:35:52.806Z,3.13
2023-04-11T11:37:56.371Z,3.25
2023-04-11T11:39:59.244Z,3.13
2023-04-11T11:42:03.327Z,2.65
2023-04-11T11:44:06.965Z,4.25
2023-04-11T11:46:12.051Z,2.80
2023-04-11T11:48:21.697Z,4.75
2023-04-11T11:50:31.265Z,5.53
2023-04-11T11:52:35.118Z,3.78
2023-04-11T11:54:44.969Z,5.05
2023-04-11T11:56:51.769Z,4.13
2023-04-11T11:58:54.506Z,3.83
2023-04-11T12:00:57.273Z,4.57
2023-04-11T12:03:00.821Z,2.50
2023-04-11T12:05:06.287Z,2.63
2023-04-11T12:07:11.024Z,3.50
2023-04-11T12:09:13.785Z,2.13
2023-04-11T12:11:16.797Z,3.23
2023-04-11T12:13:22.150Z,3.67
2023-04-11T12:15:25.238Z,4.17
2023-04-11T12:17:34.799Z,2.40
2023-04-11T12:19:42.799Z,3.20
2023-04-11T12:21:45.538Z,6.20
2023-04-11T12:23:49.585Z,2.40
2023-04-11T12:25:52.365Z,3.17
2023-04-11T12:27:55.335Z,2.57
2023-04-11T12:29:58.037Z,2.23
2023-04-11T12:32:00.729Z,4.63
2023-04-11T12:34:03.801Z,1.83
2023-04-11T12:36:07.733Z,2.37
2023-04-11T12:38:11.946Z,3.63
2023-04-11T12:40:19.304Z,2.97
2023-04-11T12:42:26.728Z,5.65
2023-04-11T12:44:29.969Z,3.93
2023-04-11T12:46:33.608Z,2.23
2023-04-11T12:48:36.529Z,3.70
2023-04-11T12:50:39.262Z,4.83
2023-04-11T12:52:42.254Z,3.10
2023-04-11T12:54:44.999Z,1.30
2023-04-11T12:56:49.058Z,2.83
2023-04-11T12:58:51.765Z,3.77
2023-04-11T13:00:54.444Z,2.60
2023-04-11T13:02:57.973Z,3.97
2023-04-11T13:05:06.280Z,2.27
2023-04-11T13:07:10.007Z,6.97
2023-04-11T13:09:13.273Z,3.13
2023-04-11T13:11:16.044Z,2.33
2023-04-11T13:13:20.114Z,5.10
2023-04-11T13:15:22.852Z,1.77
2023-04-11T13:17:25.740Z,4.50
2023-04-11T13:19:28.498Z,2.93
2023-04-11T13:21:32.547Z,2.13
2023-04-11T13:23:36.368Z,4.13
2023-04-11T13:25:39.096Z,2.17
2023-04-11T13:27:42.300Z,3.33
2023-04-11T13:29:46.350Z,4.63
2023-04-11T13:31:49.285Z,2.67
2023-04-11T13:33:52.055Z,4.67
2023-04-11T13:35:54.784Z,2.13
2023-04-11T13:37:57.729Z,4.87
2023-04-11T13:40:00.502Z,2.37
2023-04-11T13:42:03.276Z,2.83
2023-04-11T13:44:06.162Z,6.57
2023-04-11T13:46:11.298Z,3.47
2023-04-11T13:48:14.153Z,2.50
2023-04-11T13:50:17.729Z,3.23
2023-04-11T13:52:22.111Z,4.17
2023-04-11T13:54:24.927Z,3.77
2023-04-11T13:56:28.021Z,4.23
2023-04-11T13:58:31.091Z,3.33
2023-04-11T14:00:36.127Z,4.73
2023-04-11T14:02:40.723Z,33.13
2023-04-11T14:04:43.919Z,4.07
2023-04-11T14:06:46.655Z,4.40
2023-04-11T14:08:50.027Z,1.90
2023-04-11T14:10:53.728Z,3.53
2023-04-11T14:12:56.482Z,3.77
2023-04-11T14:14:59.166Z,3.17
2023-04-11T14:17:01.908Z,4.43
2023-04-11T14:19:06.151Z,6.03
2023-04-11T14:21:09.330Z,3.17
2023-04-11T14:23:13.788Z,2.67
2023-04-11T14:25:16.644Z,5.00
2023-04-11T14:27:19.447Z,1.40
2023-04-11T14:29:23.053Z,3.50
2023-04-11T14:31:26.027Z,2.43
2023-04-11T14:33:28.894Z,3.90
2023-04-11T14:35:32.972Z,3.17
2023-04-11T14:37:36.544Z,5.93
2023-04-11T14:39:39.937Z,5.43
2023-04-11T14:41:42.690Z,2.67
2023-04-11T14:43:45.435Z,2.57
2023-04-11T14:45:48.595Z,3.87
2023-04-11T14:47:51.636Z,4.93
2023-04-11T14:49:54.452Z,4.50
2023-04-11T14:51:58.720Z,4.17
2023-04-11T14:54:01.714Z,2.97
2023-04-11T14:56:06.055Z,4.67
2023-04-11T14:58:08.874Z,3.77
2023-04-11T15:00:17.966Z,3.50
2023-04-11T15:02:20.874Z,3.40
2023-04-11T15:04:23.888Z,4.00
2023-04-11T15:06:27.407Z,4.63
2023-04-11T15:08:32.068Z,2.90
2023-04-11T15:10:34.955Z,1.83
2023-04-11T15:12:37.744Z,5.90
2023-04-11T15:14:40.490Z,3.67
2023-04-11T15:16:43.193Z,3.27
2023-04-11T15:18:46.091Z,3.53
2023-04-11T15:20:48.845Z,3.73
2023-04-11T15:22:51.580Z,3.37
2023-04-11T15:24:55.705Z,4.37
2023-04-11T15:26:58.425Z,4.50
2023-04-11T15:29:01.435Z,2.90
2023-04-11T15:31:05.848Z,3.37
2023-04-11T15:33:08.731Z,2.30
2023-04-11T15:35:12.184Z,3.53
2023-04-11T15:37:15.505Z,4.17
2023-04-11T15:39:18.254Z,1.60
2023-04-11T15:41:22.407Z,3.67
2023-04-11T15:43:25.379Z,3.17
2023-04-11T15:45:28.153Z,2.80
2023-04-11T15:47:31.452Z,3.80
2023-04-11T15:49:34.679Z,3.63
2023-04-11T15:51:38.183Z,3.40
2023-04-11T15:53:41.019Z,5.60
2023-04-11T15:55:44.945Z,4.50
2023-04-11T15:57:49.873Z,4.23
2023-04-11T15:59:52.617Z,2.70
2023-04-11T16:01:55.545Z,5.67
2023-04-11T16:03:58.919Z,12.77
2023-04-11T16:06:02.935Z,4.77
2023-04-11T16:08:05.693Z,7.53
2023-04-11T16:10:09.554Z,10.33
2023-04-11T16:12:12.422Z,4.10
2023-04-11T16:14:16.762Z,4.27
2023-04-11T16:16:19.594Z,6.60
2023-04-11T16:18:22.339Z,5.93
2023-04-11T16:20:25.089Z,4.90
2023-04-11T16:22:27.912Z,3.77
2023-04-11T16:24:31.097Z,6.33
2023-04-11T16:26:33.832Z,8.37
2023-04-11T16:28:36.537Z,4.20
2023-04-11T16:30:40.801Z,8.43
2023-04-11T16:32:43.614Z,4.50
2023-04-11T16:34:46.406Z,6.73
2023-04-11T16:36:49.319Z,10.10
2023-04-11T16:38:52.083Z,11.93
2023-04-11T16:40:55.001Z,11.33
2023-04-11T16:42:57.776Z,7.27
2023-04-11T16:45:00.497Z,5.67
2023-04-11T16:47:04.712Z,6.37
2023-04-11T16:49:07.677Z,5.37
2023-04-11T16:51:11.621Z,4.10
2023-04-11T16:53:14.334Z,3.27
2023-04-11T16:55:17.875Z,2.83
2023-04-11T16:57:20.702Z,4.37
2023-04-11T16:59:24.001Z,3.50
2023-04-11T17:01:26.719Z,5.47
2023-04-11T17:03:31.165Z,5.20
2023-04-11T17:05:34.101Z,6.60
2023-04-11T17:07:36.805Z,4.37
2023-04-11T17:09:39.496Z,3.43
2023-04-11T17:11:42.157Z,5.33
2023-04-11T17:13:45.915Z,3.47
2023-04-11T17:15:48.556Z,5.37
2023-04-11T17:17:51.371Z,3.63
2023-04-11T17:19:55.599Z,5.50
2023-04-11T17:21:58.587Z,3.70
2023-04-11T17:24:01.562Z,2.90
2023-04-11T17:26:04.549Z,5.10
2023-04-11T17:28:07.289Z,4.10
2023-04-11T17:30:11.985Z,4.67
2023-04-11T17:32:14.735Z,3.27
2023-04-11T17:34:17.517Z,6.00
2023-04-11T17:36:21.721Z,5.68
2023-04-11T17:38:24.501Z,7.43
2023-04-11T17:40:27.292Z,6.33
2023-04-11T17:42:29.983Z,3.03
2023-04-11T17:44:32.765Z,3.63
2023-04-11T17:46:35.697Z,4.95
2023-04-11T17:48:38.431Z,3.22
2023-04-11T17:50:41.117Z,4.33
2023-04-11T17:52:46.132Z,4.80
2023-04-11T17:54:48.893Z,4.75
2023-04-11T17:56:52.581Z,5.30
2023-04-11T17:58:56.006Z,7.88
2023-04-11T18:00:58.701Z,8.23
2023-04-11T18:03:02.907Z,9.02
2023-04-11T18:05:13.221Z,8.73
2023-04-11T18:07:24.460Z,9.27
2023-04-11T18:09:31.772Z,11.05
2023-04-11T18:11:34.869Z,8.85
2023-04-11T18:13:37.559Z,10.38
2023-04-11T18:15:40.372Z,7.15
2023-04-11T18:17:44.567Z,4.93
2023-04-11T18:19:47.342Z,5.25
2023-04-11T18:21:50.651Z,4.93
2023-04-11T18:23:53.370Z,4.97
2023-04-11T18:25:57.466Z,3.90
2023-04-11T18:28:00.204Z,3.60
2023-04-11T18:30:04.514Z,3.75
2023-04-11T18:32:07.286Z,4.20
2023-04-11T18:34:10.189Z,3.00
2023-04-11T18:36:13.573Z,5.10
2023-04-11T18:38:16.517Z,3.83
2023-04-11T18:40:19.605Z,4.72
2023-04-11T18:42:23.839Z,6.00
2023-04-11T18:44:26.607Z,4.43
2023-04-11T18:46:29.430Z,3.58
2023-04-11T18:48:32.194Z,3.70
2023-04-11T18:50:38.669Z,5.20
2023-04-11T18:52:42.505Z,5.95
2023-04-11T18:54:45.941Z,30.55
2023-04-11T18:56:50.863Z,25.50
2023-04-11T18:59:04.320Z,13.32
2023-04-11T19:01:16.419Z,8.10
2023-04-11T19:03:20.736Z,11.02
2023-04-11T19:05:25.526Z,18.35
2023-04-11T19:07:28.411Z,18.65
2023-04-11T19:09:31.100Z,8.52
2023-04-11T19:11:34.964Z,6.90
2023-04-11T19:13:37.704Z,4.35
2023-04-11T19:15:42.447Z,11.30
2023-04-11T19:17:45.232Z,5.22
2023-04-11T19:19:48.136Z,4.93
2023-04-11T19:21:51.521Z,5.97
2023-04-11T19:23:54.512Z,3.35
2023-04-11T19:25:57.337Z,10.05
2023-04-11T19:28:00.578Z,18.52
2023-04-11T19:30:03.489Z,91.43
2023-04-11T19:32:08.826Z,34.20
2023-04-11T19:34:11.995Z,30.45
2023-04-11T19:36:14.881Z,28.83
2023-04-11T19:38:17.616Z,60.50
2023-04-11T19:40:23.185Z,30.38
2023-04-11T19:42:26.068Z,18.65
2023-04-11T19:44:30.435Z,18.23
2023-04-11T19:46:33.190Z,19.90
2023-04-11T19:48:37.291Z,20.73
2023-04-11T19:50:40.064Z,12.68
2023-04-11T19:52:43.837Z,11.73
2023-04-11T19:54:46.705Z,6.00
2023-04-11T19:56:49.478Z,6.78
2023-04-11T19:58:52.362Z,6.97
2023-04-11T20:00:55.281Z,5.82
2023-04-11T20:02:58.222Z,5.70
2023-04-11T20:05:02.436Z,4.35
2023-04-11T20:07:05.151Z,4.03
2023-04-11T20:09:07.863Z,5.63
2023-04-11T20:11:15.518Z,6.75
2023-04-11T20:13:18.278Z,7.32
2023-04-11T20:15:21.184Z,3.70
2023-04-11T20:17:23.957Z,5.75
2023-04-11T20:19:29.559Z,3.45
2023-04-11T20:21:33.827Z,5.32
2023-04-11T20:23:37.028Z,4.60
2023-04-11T20:25:39.780Z,4.30
2023-04-11T20:27:43.726Z,5.80
2023-04-11T20:29:46.457Z,6.82
2023-04-11T20:31:49.231Z,4.22
2023-04-11T20:33:52.119Z,4.70
2023-04-11T20:35:55.817Z,7.20
2023-04-11T20:38:00.298Z,7.30
2023-04-11T20:40:06.490Z,6.28
2023-04-11T20:42:10.804Z,5.88
2023-04-11T20:44:17.596Z,5.15
2023-04-11T20:46:21.609Z,7.18
2023-04-11T20:48:25.870Z,5.80
2023-04-11T20:50:33.249Z,8.85
2023-04-11T20:52:36.756Z,8.00
2023-04-11T20:54:41.100Z,10.18
2023-04-11T20:56:44.025Z,7.88
2023-04-11T20:58:46.981Z,8.25
2023-04-11T21:00:49.698Z,7.55
2023-04-11T21:02:53.079Z,14.70
2023-04-11T21:04:56.411Z,12.32
2023-04-11T21:06:59.126Z,8.07
2023-04-11T21:09:02.588Z,7.63
2023-04-11T21:11:07.021Z,5.40
2023-04-11T21:13:09.772Z,4.20
2023-04-11T21:15:12.925Z,7.55
2023-04-11T21:17:15.714Z,5.38
2023-04-11T21:19:18.687Z,5.35
2023-04-11T21:21:21.430Z,4.28
2023-04-11T21:23:24.203Z,5.68
2023-04-11T21:25:27.200Z,11.57
2023-04-11T21:27:31.345Z,7.55
2023-04-11T21:29:34.088Z,6.40
2023-04-11T21:31:36.854Z,6.18
2023-04-11T21:33:39.606Z,5.93
2023-04-11T21:35:42.487Z,18.52
2023-04-11T21:37:47.148Z,42.08
2023-04-11T21:39:51.797Z,35.85
2023-04-11T21:41:54.606Z,15.80
2023-04-11T21:43:59.022Z,11.98
2023-04-11T21:46:01.949Z,15.45
2023-04-11T21:48:04.828Z,19.65
2023-04-11T21:50:09.064Z,14.10
2023-04-11T21:52:11.815Z,14.30
2023-04-11T21:54:14.608Z,13.13
2023-04-11T21:56:17.405Z,13.35
2023-04-11T21:58:29.041Z,8.18
2023-04-11T22:00:33.918Z,5.80
2023-04-11T22:02:36.897Z,7.10
2023-04-11T22:04:55.698Z,10.15
2023-04-11T22:07:02.624Z,10.73
2023-04-11T22:09:05.709Z,35.95
2023-04-11T22:11:10.496Z,32.03
2023-04-11T22:13:15.114Z,58.03
2023-04-11T22:15:18.366Z,39.88
2023-04-11T22:17:23.726Z,42.10
2023-04-11T22:19:28.528Z,22.50
2023-04-11T22:21:32.465Z,15.10
2023-04-11T22:23:35.946Z,10.52
2023-04-11T22:25:38.763Z,7.40
2023-04-11T22:27:41.558Z,7.88
2023-04-11T22:29:45.409Z,9.05
2023-04-11T22:31:49.659Z,13.05
2023-04-11T22:33:54.255Z,18.08
2023-04-11T22:36:00.287Z,19.38
2023-04-11T22:38:03.909Z,16.63
2023-04-11T22:40:08.380Z,12.82
2023-04-11T22:42:12.629Z,9.90
2023-04-11T22:44:15.516Z,9.00
2023-04-11T22:46:18.342Z,6.93
2023-04-11T22:48:21.239Z,6.93
2023-04-11T22:50:25.379Z,4.05
2023-04-11T22:52:30.375Z,3.90
2023-04-11T22:54:33.168Z,3.92
2023-04-11T22:56:35.953Z,5.07
2023-04-11T22:58:39.720Z,5.10
2023-04-11T23:00:43.645Z,5.53
2023-04-11T23:02:47.198Z,5.28
2023-04-11T23:04:50.238Z,5.35
2023-04-11T23:06:54.643Z,6.07
2023-04-11T23:08:57.757Z,5.68
2023-04-11T23:11:00.580Z,4.40
2023-04-11T23:13:03.656Z,5.65
2023-04-11T23:15:07.415Z,4.72
2023-04-11T23:17:10.184Z,5.53
2023-04-11T23:19:13.463Z,6.65
2023-04-11T23:21:16.312Z,6.60
2023-04-11T23:23:20.805Z,6.65
2023-04-11T23:25:23.744Z,5.35
2023-04-11T23:27:32.771Z,8.68
2023-04-11T23:29:38.593Z,4.25
2023-04-11T23:31:41.531Z,4.65
2023-04-11T23:33:44.686Z,5.93
2023-04-11T23:35:47.529Z,7.35
2023-04-11T23:37:50.896Z,6.22
2023-04-11T23:39:55.544Z,3.80
2023-04-11T23:41:58.361Z,4.53
2023-04-11T23:44:01.156Z,4.25
2023-04-11T23:46:03.934Z,4.50
2023-04-11T23:48:07.447Z,7.10
2023-04-11T23:50:12.148Z,5.15
2023-04-11T23:52:15.040Z,5.32
2023-04-11T23:54:17.818Z,4.55
2023-04-11T23:56:23.013Z,6.53
2023-04-11T23:58:25.904Z,4.55
